sensor_id;sensor_type;location;lat;lon;timestamp;P1;durP1;ratioP1;P2;durP2;ratioP2
23101;SDS011;11720;51.214;22.574;2023-04-24T00:00:03;12.85;;;4.22;;
23101;SDS011;11720;51.214;22.574;2023-04-24T00:02:39;11.85;;;4.93;;
23101;SDS011;11720;51.214;22.574;2023-04-24T00:05:06;10.30;;;4.72;;
23101;SDS011;11720;51.214;22.574;2023-04-24T00:07:33;6.70;;;4.10;;
23101;SDS011;11720;51.214;22.574;2023-04-24T00:09:59;12.95;;;5.15;;
23101;SDS011;11720;51.214;22.574;2023-04-24T00:12:25;6.53;;;4.38;;
23101;SDS011;11720;51.214;22.574;2023-04-24T00:14:51;7.78;;;4.55;;
23101;SDS011;11720;51.214;22.574;2023-04-24T00:17:20;9.32;;;4.45;;
23101;SDS011;11720;51.214;22.574;2023-04-24T00:19:46;9.43;;;4.32;;
23101;SDS011;11720;51.214;22.574;2023-04-24T00:22:13;6.70;;;4.05;;
23101;SDS011;11720;51.214;22.574;2023-04-24T00:24:40;7.22;;;3.75;;
23101;SDS011;11720;51.214;22.574;2023-04-24T00:27:06;7.78;;;3.42;;
23101;SDS011;11720;51.214;22.574;2023-04-24T00:29:31;5.38;;;3.30;;
23101;SDS011;11720;51.214;22.574;2023-04-24T00:31:57;10.38;;;3.75;;
23101;SDS011;11720;51.214;22.574;2023-04-24T00:34:23;5.32;;;3.17;;
23101;SDS011;11720;51.214;22.574;2023-04-24T00:36:48;5.35;;;3.58;;
23101;SDS011;11720;51.214;22.574;2023-04-24T00:39:17;5.05;;;3.42;;
23101;SDS011;11720;51.214;22.574;2023-04-24T00:41:43;5.03;;;3.55;;
23101;SDS011;11720;51.214;22.574;2023-04-24T00:44:10;6.03;;;3.78;;
23101;SDS011;11720;51.214;22.574;2023-04-24T00:46:36;4.70;;;3.30;;
23101;SDS011;11720;51.214;22.574;2023-04-24T00:49:02;6.82;;;3.53;;
23101;SDS011;11720;51.214;22.574;2023-04-24T00:51:29;4.68;;;3.90;;
23101;SDS011;11720;51.214;22.574;2023-04-24T00:53:55;5.18;;;3.05;;
23101;SDS011;11720;51.214;22.574;2023-04-24T00:56:21;11.83;;;3.70;;
23101;SDS011;11720;51.214;22.574;2023-04-24T00:58:48;6.30;;;3.47;;
23101;SDS011;11720;51.214;22.574;2023-04-24T01:01:14;7.03;;;3.00;;
23101;SDS011;11720;51.214;22.574;2023-04-24T01:03:40;6.70;;;3.55;;
23101;SDS011;11720;51.214;22.574;2023-04-24T01:06:06;5.40;;;3.57;;
23101;SDS011;11720;51.214;22.574;2023-04-24T01:08:32;6.50;;;3.50;;
23101;SDS011;11720;51.214;22.574;2023-04-24T01:10:59;5.00;;;3.07;;
23101;SDS011;11720;51.214;22.574;2023-04-24T01:13:28;5.67;;;3.47;;
23101;SDS011;11720;51.214;22.574;2023-04-24T01:15:54;7.68;;;3.72;;
23101;SDS011;11720;51.214;22.574;2023-04-24T01:18:20;4.90;;;3.17;;
23101;SDS011;11720;51.214;22.574;2023-04-24T01:20:46;4.60;;;3.35;;
23101;SDS011;11720;51.214;22.574;2023-04-24T01:23:17;12.05;;;3.47;;
23101;SDS011;11720;51.214;22.574;2023-04-24T01:25:42;4.90;;;3.30;;
23101;SDS011;11720;51.214;22.574;2023-04-24T01:28:09;6.82;;;3.25;;
23101;SDS011;11720;51.214;22.574;2023-04-24T01:30:35;6.70;;;3.50;;
23101;SDS011;11720;51.214;22.574;2023-04-24T01:33:01;10.27;;;3.60;;
23101;SDS011;11720;51.214;22.574;2023-04-24T01:35:27;7.35;;;3.40;;
23101;SDS011;11720;51.214;22.574;2023-04-24T01:37:53;5.40;;;3.47;;
23101;SDS011;11720;51.214;22.574;2023-04-24T01:40:19;7.88;;;4.35;;
23101;SDS011;11720;51.214;22.574;2023-04-24T01:42:45;9.77;;;3.17;;
23101;SDS011;11720;51.214;22.574;2023-04-24T01:45:11;5.95;;;3.45;;
23101;SDS011;11720;51.214;22.574;2023-04-24T01:47:38;4.27;;;3.03;;
23101;SDS011;11720;51.214;22.574;2023-04-24T01:50:04;5.40;;;3.42;;
23101;SDS011;11720;51.214;22.574;2023-04-24T01:52:30;4.77;;;3.07;;
23101;SDS011;11720;51.214;22.574;2023-04-24T01:55:01;4.53;;;3.00;;
23101;SDS011;11720;51.214;22.574;2023-04-24T01:57:29;3.80;;;3.10;;
23101;SDS011;11720;51.214;22.574;2023-04-24T01:59:55;4.60;;;3.10;;
23101;SDS011;11720;51.214;22.574;2023-04-24T02:02:21;9.10;;;3.60;;
23101;SDS011;11720;51.214;22.574;2023-04-24T02:04:49;6.28;;;3.83;;
23101;SDS011;11720;51.214;22.574;2023-04-24T02:07:15;5.90;;;3.97;;
23101;SDS011;11720;51.214;22.574;2023-04-24T02:09:41;5.03;;;3.77;;
23101;SDS011;11720;51.214;22.574;2023-04-24T02:12:07;5.83;;;3.33;;
23101;SDS011;11720;51.214;22.574;2023-04-24T02:14:33;6.23;;;3.40;;
23101;SDS011;11720;51.214;22.574;2023-04-24T02:16:58;7.33;;;4.43;;
23101;SDS011;11720;51.214;22.574;2023-04-24T02:19:25;6.43;;;3.87;;
23101;SDS011;11720;51.214;22.574;2023-04-24T02:21:51;4.63;;;3.53;;
23101;SDS011;11720;51.214;22.574;2023-04-24T02:24:17;6.77;;;3.97;;
23101;SDS011;11720;51.214;22.574;2023-04-24T02:26:43;5.17;;;3.33;;
23101;SDS011;11720;51.214;22.574;2023-04-24T02:29:09;4.93;;;3.70;;
23101;SDS011;11720;51.214;22.574;2023-04-24T02:31:35;5.43;;;2.93;;
23101;SDS011;11720;51.214;22.574;2023-04-24T02:34:01;6.40;;;3.40;;
23101;SDS011;11720;51.214;22.574;2023-04-24T02:36:27;5.20;;;3.40;;
23101;SDS011;11720;51.214;22.574;2023-04-24T02:38:52;10.07;;;4.17;;
23101;SDS011;11720;51.214;22.574;2023-04-24T02:41:18;8.60;;;3.90;;
23101;SDS011;11720;51.214;22.574;2023-04-24T02:43:44;5.93;;;3.90;;
23101;SDS011;11720;51.214;22.574;2023-04-24T02:46:10;4.50;;;3.47;;
23101;SDS011;11720;51.214;22.574;2023-04-24T02:48:36;4.27;;;2.90;;
23101;SDS011;11720;51.214;22.574;2023-04-24T02:51:02;9.07;;;4.23;;
23101;SDS011;11720;51.214;22.574;2023-04-24T02:53:28;6.00;;;3.87;;
23101;SDS011;11720;51.214;22.574;2023-04-24T02:55:55;5.33;;;3.20;;
23101;SDS011;11720;51.214;22.574;2023-04-24T02:58:21;4.33;;;3.30;;
23101;SDS011;11720;51.214;22.574;2023-04-24T03:00:47;6.83;;;4.13;;
23101;SDS011;11720;51.214;22.574;2023-04-24T03:03:13;6.83;;;3.50;;
23101;SDS011;11720;51.214;22.574;2023-04-24T03:05:40;7.67;;;4.63;;
23101;SDS011;11720;51.214;22.574;2023-04-24T03:08:06;6.23;;;4.23;;
23101;SDS011;11720;51.214;22.574;2023-04-24T03:10:32;5.87;;;3.73;;
23101;SDS011;11720;51.214;22.574;2023-04-24T03:12:58;7.27;;;4.03;;
23101;SDS011;11720;51.214;22.574;2023-04-24T03:15:24;6.00;;;4.07;;
23101;SDS011;11720;51.214;22.574;2023-04-24T03:17:50;10.70;;;4.60;;
23101;SDS011;11720;51.214;22.574;2023-04-24T03:20:16;4.37;;;3.30;;
23101;SDS011;11720;51.214;22.574;2023-04-24T03:22:41;5.57;;;3.90;;
23101;SDS011;11720;51.214;22.574;2023-04-24T03:25:07;6.70;;;3.90;;
23101;SDS011;11720;51.214;22.574;2023-04-24T03:27:34;8.30;;;4.17;;
23101;SDS011;11720;51.214;22.574;2023-04-24T03:30:00;5.97;;;4.13;;
23101;SDS011;11720;51.214;22.574;2023-04-24T03:32:26;8.30;;;4.67;;
23101;SDS011;11720;51.214;22.574;2023-04-24T03:34:51;6.50;;;3.83;;
23101;SDS011;11720;51.214;22.574;2023-04-24T03:37:17;8.63;;;3.87;;
23101;SDS011;11720;51.214;22.574;2023-04-24T03:39:43;4.80;;;3.67;;
23101;SDS011;11720;51.214;22.574;2023-04-24T03:42:09;7.60;;;4.80;;
23101;SDS011;11720;51.214;22.574;2023-04-24T03:44:35;6.53;;;4.57;;
23101;SDS011;11720;51.214;22.574;2023-04-24T03:47:01;5.10;;;4.20;;
23101;SDS011;11720;51.214;22.574;2023-04-24T03:49:26;10.40;;;4.27;;
23101;SDS011;11720;51.214;22.574;2023-04-24T03:51:52;5.83;;;4.10;;
23101;SDS011;11720;51.214;22.574;2023-04-24T03:54:18;10.33;;;4.73;;
23101;SDS011;11720;51.214;22.574;2023-04-24T03:56:44;6.83;;;4.33;;
23101;SDS011;11720;51.214;22.574;2023-04-24T03:59:10;10.57;;;3.93;;
23101;SDS011;11720;51.214;22.574;2023-04-24T04:01:36;6.37;;;4.00;;
23101;SDS011;11720;51.214;22.574;2023-04-24T04:04:05;10.17;;;4.37;;
23101;SDS011;11720;51.214;22.574;2023-04-24T04:06:31;7.47;;;4.20;;
23101;SDS011;11720;51.214;22.574;2023-04-24T04:08:57;11.17;;;5.27;;
23101;SDS011;11720;51.214;22.574;2023-04-24T04:11:23;6.17;;;4.00;;
23101;SDS011;11720;51.214;22.574;2023-04-24T04:13:49;8.20;;;4.53;;
23101;SDS011;11720;51.214;22.574;2023-04-24T04:16:15;6.27;;;4.40;;
23101;SDS011;11720;51.214;22.574;2023-04-24T04:18:44;6.63;;;4.37;;
23101;SDS011;11720;51.214;22.574;2023-04-24T04:21:10;12.23;;;4.63;;
23101;SDS011;11720;51.214;22.574;2023-04-24T04:23:36;7.53;;;5.07;;
23101;SDS011;11720;51.214;22.574;2023-04-24T04:26:02;6.13;;;4.13;;
23101;SDS011;11720;51.214;22.574;2023-04-24T04:28:28;8.00;;;4.70;;
23101;SDS011;11720;51.214;22.574;2023-04-24T04:30:56;8.77;;;4.73;;
23101;SDS011;11720;51.214;22.574;2023-04-24T04:33:23;9.33;;;4.60;;
23101;SDS011;11720;51.214;22.574;2023-04-24T04:35:49;7.23;;;4.03;;
23101;SDS011;11720;51.214;22.574;2023-04-24T04:38:17;13.90;;;4.93;;
23101;SDS011;11720;51.214;22.574;2023-04-24T04:40:43;7.40;;;4.47;;
23101;SDS011;11720;51.214;22.574;2023-04-24T04:43:09;6.53;;;4.50;;
23101;SDS011;11720;51.214;22.574;2023-04-24T04:45:36;6.40;;;4.00;;
23101;SDS011;11720;51.214;22.574;2023-04-24T04:48:03;6.82;;;3.97;;
23101;SDS011;11720;51.214;22.574;2023-04-24T04:50:29;8.52;;;4.43;;
23101;SDS011;11720;51.214;22.574;2023-04-24T04:52:55;7.40;;;4.63;;
23101;SDS011;11720;51.214;22.574;2023-04-24T04:55:21;9.30;;;4.55;;
23101;SDS011;11720;51.214;22.574;2023-04-24T04:57:47;5.22;;;3.70;;
23101;SDS011;11720;51.214;22.574;2023-04-24T05:00:13;9.55;;;4.50;;
23101;SDS011;11720;51.214;22.574;2023-04-24T05:02:39;5.85;;;4.38;;
23101;SDS011;11720;51.214;22.574;2023-04-24T05:05:05;7.72;;;4.38;;
23101;SDS011;11720;51.214;22.574;2023-04-24T05:07:33;8.00;;;4.90;;
23101;SDS011;11720;51.214;22.574;2023-04-24T05:09:59;10.90;;;4.85;;
23101;SDS011;11720;51.214;22.574;2023-04-24T05:12:25;5.60;;;3.83;;
23101;SDS011;11720;51.214;22.574;2023-04-24T05:14:50;9.15;;;5.63;;
23101;SDS011;11720;51.214;22.574;2023-04-24T05:17:16;10.05;;;4.82;;
23101;SDS011;11720;51.214;22.574;2023-04-24T05:19:43;7.15;;;3.65;;
23101;SDS011;11720;51.214;22.574;2023-04-24T05:22:10;7.43;;;3.67;;
23101;SDS011;11720;51.214;22.574;2023-04-24T05:24:36;5.25;;;3.53;;
23101;SDS011;11720;51.214;22.574;2023-04-24T05:27:02;6.88;;;4.20;;
23101;SDS011;11720;51.214;22.574;2023-04-24T05:29:29;7.80;;;4.47;;
23101;SDS011;11720;51.214;22.574;2023-04-24T05:31:58;6.75;;;3.80;;
23101;SDS011;11720;51.214;22.574;2023-04-24T05:34:25;6.38;;;4.40;;
23101;SDS011;11720;51.214;22.574;2023-04-24T05:36:51;7.50;;;3.78;;
23101;SDS011;11720;51.214;22.574;2023-04-24T05:39:18;5.43;;;3.53;;
23101;SDS011;11720;51.214;22.574;2023-04-24T05:41:44;7.47;;;4.13;;
23101;SDS011;11720;51.214;22.574;2023-04-24T05:44:10;6.18;;;2.92;;
23101;SDS011;11720;51.214;22.574;2023-04-24T05:46:35;8.07;;;4.75;;
23101;SDS011;11720;51.214;22.574;2023-04-24T05:49:01;5.20;;;3.30;;
23101;SDS011;11720;51.214;22.574;2023-04-24T05:51:27;3.92;;;3.30;;
23101;SDS011;11720;51.214;22.574;2023-04-24T05:53:53;5.15;;;3.85;;
23101;SDS011;11720;51.214;22.574;2023-04-24T05:56:19;11.32;;;3.65;;
23101;SDS011;11720;51.214;22.574;2023-04-24T05:58:45;4.68;;;3.63;;
23101;SDS011;11720;51.214;22.574;2023-04-24T06:01:12;6.85;;;3.50;;
23101;SDS011;11720;51.214;22.574;2023-04-24T06:03:39;4.22;;;3.35;;
23101;SDS011;11720;51.214;22.574;2023-04-24T06:06:05;4.10;;;3.25;;
23101;SDS011;11720;51.214;22.574;2023-04-24T06:08:32;7.68;;;3.67;;
23101;SDS011;11720;51.214;22.574;2023-04-24T06:10:57;5.43;;;3.47;;
23101;SDS011;11720;51.214;22.574;2023-04-24T06:13:23;9.70;;;3.30;;
23101;SDS011;11720;51.214;22.574;2023-04-24T06:15:49;5.13;;;3.28;;
23101;SDS011;11720;51.214;22.574;2023-04-24T06:18:15;5.40;;;3.75;;
23101;SDS011;11720;51.214;22.574;2023-04-24T06:20:41;6.60;;;4.13;;
23101;SDS011;11720;51.214;22.574;2023-04-24T06:23:06;4.63;;;3.08;;
23101;SDS011;11720;51.214;22.574;2023-04-24T06:25:32;4.80;;;3.58;;
23101;SDS011;11720;51.214;22.574;2023-04-24T06:27:58;4.88;;;3.60;;
23101;SDS011;11720;51.214;22.574;2023-04-24T06:30:23;5.22;;;3.35;;
23101;SDS011;11720;51.214;22.574;2023-04-24T06:32:50;5.63;;;3.38;;
23101;SDS011;11720;51.214;22.574;2023-04-24T06:35:15;6.60;;;3.38;;
23101;SDS011;11720;51.214;22.574;2023-04-24T06:37:42;9.40;;;3.72;;
23101;SDS011;11720;51.214;22.574;2023-04-24T06:40:08;4.65;;;3.50;;
23101;SDS011;11720;51.214;22.574;2023-04-24T06:42:35;4.63;;;3.13;;
23101;SDS011;11720;51.214;22.574;2023-04-24T06:45:01;5.00;;;3.65;;
23101;SDS011;11720;51.214;22.574;2023-04-24T06:47:27;6.93;;;3.40;;
23101;SDS011;11720;51.214;22.574;2023-04-24T06:49:53;9.10;;;3.00;;
23101;SDS011;11720;51.214;22.574;2023-04-24T06:52:19;3.67;;;3.28;;
23101;SDS011;11720;51.214;22.574;2023-04-24T06:54:44;3.78;;;2.85;;
23101;SDS011;11720;51.214;22.574;2023-04-24T06:57:10;6.90;;;3.55;;
23101;SDS011;11720;51.214;22.574;2023-04-24T06:59:37;3.53;;;3.20;;
23101;SDS011;11720;51.214;22.574;2023-04-24T07:02:03;5.25;;;3.08;;
23101;SDS011;11720;51.214;22.574;2023-04-24T07:04:29;3.78;;;2.75;;
23101;SDS011;11720;51.214;22.574;2023-04-24T07:06:56;4.80;;;3.30;;
23101;SDS011;11720;51.214;22.574;2023-04-24T07:09:23;5.55;;;3.55;;
23101;SDS011;11720;51.214;22.574;2023-04-24T07:11:50;5.40;;;3.47;;
23101;SDS011;11720;51.214;22.574;2023-04-24T07:14:16;5.00;;;3.13;;
23101;SDS011;11720;51.214;22.574;2023-04-24T07:16:42;4.85;;;3.22;;
23101;SDS011;11720;51.214;22.574;2023-04-24T07:19:08;4.60;;;3.00;;
23101;SDS011;11720;51.214;22.574;2023-04-24T07:21:34;4.68;;;3.10;;
23101;SDS011;11720;51.214;22.574;2023-04-24T07:24:00;4.80;;;3.20;;
23101;SDS011;11720;51.214;22.574;2023-04-24T07:26:27;5.55;;;2.95;;
23101;SDS011;11720;51.214;22.574;2023-04-24T07:28:54;8.25;;;3.78;;
23101;SDS011;11720;51.214;22.574;2023-04-24T07:31:20;4.22;;;3.20;;
23101;SDS011;11720;51.214;22.574;2023-04-24T07:33:46;5.85;;;3.30;;
23101;SDS011;11720;51.214;22.574;2023-04-24T07:36:12;4.18;;;3.15;;
23101;SDS011;11720;51.214;22.574;2023-04-24T07:38:42;5.97;;;3.47;;
23101;SDS011;11720;51.214;22.574;2023-04-24T07:41:08;6.32;;;3.15;;
23101;SDS011;11720;51.214;22.574;2023-04-24T07:43:34;4.03;;;3.20;;
23101;SDS011;11720;51.214;22.574;2023-04-24T07:46:00;3.58;;;2.70;;
23101;SDS011;11720;51.214;22.574;2023-04-24T07:48:25;6.40;;;3.75;;
23101;SDS011;11720;51.214;22.574;2023-04-24T07:50:51;5.43;;;3.25;;
23101;SDS011;11720;51.214;22.574;2023-04-24T07:53:18;4.30;;;3.10;;
23101;SDS011;11720;51.214;22.574;2023-04-24T07:55:43;3.78;;;2.78;;
23101;SDS011;11720;51.214;22.574;2023-04-24T07:58:09;8.75;;;3.50;;
23101;SDS011;11720;51.214;22.574;2023-04-24T08:00:35;4.97;;;3.45;;
23101;SDS011;11720;51.214;22.574;2023-04-24T08:03:01;9.98;;;3.38;;
23101;SDS011;11720;51.214;22.574;2023-04-24T08:05:27;5.90;;;3.50;;
23101;SDS011;11720;51.214;22.574;2023-04-24T08:07:54;3.40;;;2.63;;
23101;SDS011;11720;51.214;22.574;2023-04-24T08:10:23;7.05;;;3.72;;
23101;SDS011;11720;51.214;22.574;2023-04-24T08:12:49;6.18;;;3.13;;
23101;SDS011;11720;51.214;22.574;2023-04-24T08:15:15;6.40;;;3.38;;
23101;SDS011;11720;51.214;22.574;2023-04-24T08:17:41;17.40;;;3.38;;
23101;SDS011;11720;51.214;22.574;2023-04-24T08:20:07;7.45;;;3.38;;
23101;SDS011;11720;51.214;22.574;2023-04-24T08:22:38;4.65;;;3.15;;
23101;SDS011;11720;51.214;22.574;2023-04-24T08:25:05;5.78;;;3.40;;
23101;SDS011;11720;51.214;22.574;2023-04-24T08:27:31;5.95;;;3.40;;
23101;SDS011;11720;51.214;22.574;2023-04-24T08:29:57;4.50;;;2.92;;
23101;SDS011;11720;51.214;22.574;2023-04-24T08:32:26;5.15;;;2.72;;
23101;SDS011;11720;51.214;22.574;2023-04-24T08:34:55;5.57;;;3.50;;
23101;SDS011;11720;51.214;22.574;2023-04-24T08:37:21;4.40;;;2.78;;
23101;SDS011;11720;51.214;22.574;2023-04-24T08:39:48;3.97;;;3.03;;
23101;SDS011;11720;51.214;22.574;2023-04-24T08:42:14;5.18;;;3.45;;
23101;SDS011;11720;51.214;22.574;2023-04-24T08:44:42;5.35;;;3.00;;
23101;SDS011;11720;51.214;22.574;2023-04-24T08:47:09;3.50;;;2.47;;
23101;SDS011;11720;51.214;22.574;2023-04-24T08:49:36;4.68;;;2.88;;
23101;SDS011;11720;51.214;22.574;2023-04-24T08:52:02;4.00;;;2.67;;
23101;SDS011;11720;51.214;22.574;2023-04-24T08:54:28;4.55;;;3.78;;
23101;SDS011;11720;51.214;22.574;2023-04-24T08:56:56;4.95;;;3.60;;
23101;SDS011;11720;51.214;22.574;2023-04-24T08:59:26;3.65;;;2.80;;
23101;SDS011;11720;51.214;22.574;2023-04-24T09:01:53;4.47;;;2.83;;
23101;SDS011;11720;51.214;22.574;2023-04-24T09:04:21;3.20;;;2.40;;
23101;SDS011;11720;51.214;22.574;2023-04-24T09:06:49;3.22;;;2.58;;
23101;SDS011;11720;51.214;22.574;2023-04-24T09:09:22;5.75;;;2.97;;
23101;SDS011;11720;51.214;22.574;2023-04-24T09:11:50;5.43;;;3.20;;
23101;SDS011;11720;51.214;22.574;2023-04-24T09:14:18;5.93;;;3.03;;
23101;SDS011;11720;51.214;22.574;2023-04-24T09:16:45;4.75;;;3.45;;
23101;SDS011;11720;51.214;22.574;2023-04-24T09:19:11;6.30;;;3.15;;
23101;SDS011;11720;51.214;22.574;2023-04-24T09:21:37;4.68;;;3.00;;
23101;SDS011;11720;51.214;22.574;2023-04-24T09:24:04;3.90;;;2.75;;
23101;SDS011;11720;51.214;22.574;2023-04-24T09:26:36;6.78;;;2.65;;
23101;SDS011;11720;51.214;22.574;2023-04-24T09:29:03;4.57;;;3.00;;
23101;SDS011;11720;51.214;22.574;2023-04-24T09:31:29;3.78;;;2.75;;
23101;SDS011;11720;51.214;22.574;2023-04-24T09:33:56;4.35;;;2.65;;
23101;SDS011;11720;51.214;22.574;2023-04-24T09:36:32;4.65;;;2.88;;
23101;SDS011;11720;51.214;22.574;2023-04-24T09:39:07;4.70;;;3.70;;
23101;SDS011;11720;51.214;22.574;2023-04-24T09:44:20;3.88;;;2.47;;
23101;SDS011;11720;51.214;22.574;2023-04-24T09:46:54;5.82;;;3.00;;
23101;SDS011;11720;51.214;22.574;2023-04-24T09:51:51;7.03;;;3.25;;
23101;SDS011;11720;51.214;22.574;2023-04-24T09:54:18;3.50;;;2.80;;
23101;SDS011;11720;51.214;22.574;2023-04-24T09:56:46;4.20;;;3.20;;
23101;SDS011;11720;51.214;22.574;2023-04-24T09:59:14;3.95;;;2.80;;
23101;SDS011;11720;51.214;22.574;2023-04-24T10:01:41;5.55;;;3.10;;
23101;SDS011;11720;51.214;22.574;2023-04-24T10:06:43;3.50;;;2.50;;
23101;SDS011;11720;51.214;22.574;2023-04-24T10:09:09;4.03;;;3.08;;
23101;SDS011;11720;51.214;22.574;2023-04-24T10:11:37;3.60;;;2.70;;
23101;SDS011;11720;51.214;22.574;2023-04-24T10:14:06;4.28;;;2.70;;
23101;SDS011;11720;51.214;22.574;2023-04-24T10:16:33;4.75;;;2.55;;
23101;SDS011;11720;51.214;22.574;2023-04-24T10:19:00;4.75;;;2.88;;
23101;SDS011;11720;51.214;22.574;2023-04-24T10:21:27;4.25;;;2.47;;
23101;SDS011;11720;51.214;22.574;2023-04-24T10:23:53;6.07;;;2.78;;
23101;SDS011;11720;51.214;22.574;2023-04-24T10:26:19;5.47;;;2.63;;
23101;SDS011;11720;51.214;22.574;2023-04-24T10:28:45;5.78;;;2.97;;
23101;SDS011;11720;51.214;22.574;2023-04-24T10:31:12;3.63;;;2.55;;
23101;SDS011;11720;51.214;22.574;2023-04-24T10:33:39;4.18;;;2.97;;
23101;SDS011;11720;51.214;22.574;2023-04-24T10:36:07;4.07;;;2.70;;
23101;SDS011;11720;51.214;22.574;2023-04-24T10:38:34;4.13;;;3.47;;
23101;SDS011;11720;51.214;22.574;2023-04-24T10:41:08;4.47;;;2.72;;
23101;SDS011;11720;51.214;22.574;2023-04-24T10:43:39;4.25;;;2.33;;
23101;SDS011;11720;51.214;22.574;2023-04-24T10:46:06;3.58;;;2.40;;
23101;SDS011;11720;51.214;22.574;2023-04-24T10:48:32;3.45;;;2.33;;
23101;SDS011;11720;51.214;22.574;2023-04-24T10:50:58;4.10;;;3.17;;
23101;SDS011;11720;51.214;22.574;2023-04-24T10:53:27;4.30;;;2.33;;
23101;SDS011;11720;51.214;22.574;2023-04-24T10:55:58;3.45;;;2.83;;
23101;SDS011;11720;51.214;22.574;2023-04-24T10:58:39;5.50;;;2.58;;
23101;SDS011;11720;51.214;22.574;2023-04-24T11:01:23;3.47;;;2.05;;
23101;SDS011;11720;51.214;22.574;2023-04-24T11:03:57;4.30;;;2.65;;
23101;SDS011;11720;51.214;22.574;2023-04-24T11:06:28;4.50;;;2.40;;
23101;SDS011;11720;51.214;22.574;2023-04-24T11:09:10;3.67;;;2.28;;
23101;SDS011;11720;51.214;22.574;2023-04-24T11:11:44;2.88;;;2.30;;
23101;SDS011;11720;51.214;22.574;2023-04-24T11:14:14;3.15;;;2.33;;
23101;SDS011;11720;51.214;22.574;2023-04-24T11:17:26;4.28;;;2.85;;
23101;SDS011;11720;51.214;22.574;2023-04-24T11:19:34;6.53;;;2.72;;
23101;SDS011;11720;51.214;22.574;2023-04-24T11:22:02;4.50;;;2.78;;
23101;SDS011;11720;51.214;22.574;2023-04-24T11:24:30;4.25;;;2.40;;
23101;SDS011;11720;51.214;22.574;2023-04-24T11:30:04;5.43;;;2.67;;
23101;SDS011;11720;51.214;22.574;2023-04-24T11:37:43;3.67;;;2.28;;
23101;SDS011;11720;51.214;22.574;2023-04-24T11:40:14;4.20;;;2.75;;
23101;SDS011;11720;51.214;22.574;2023-04-24T11:42:44;3.70;;;2.55;;
23101;SDS011;11720;51.214;22.574;2023-04-24T11:47:38;4.15;;;2.47;;
23101;SDS011;11720;51.214;22.574;2023-04-24T11:50:05;3.08;;;2.22;;
23101;SDS011;11720;51.214;22.574;2023-04-24T11:52:39;3.47;;;2.58;;
23101;SDS011;11720;51.214;22.574;2023-04-24T11:55:07;4.32;;;2.60;;
23101;SDS011;11720;51.214;22.574;2023-04-24T11:57:37;3.33;;;2.50;;
23101;SDS011;11720;51.214;22.574;2023-04-24T12:00:03;3.92;;;2.28;;
23101;SDS011;11720;51.214;22.574;2023-04-24T12:02:30;3.95;;;2.50;;
23101;SDS011;11720;51.214;22.574;2023-04-24T12:04:56;2.58;;;2.30;;
23101;SDS011;11720;51.214;22.574;2023-04-24T12:07:22;3.42;;;2.55;;
23101;SDS011;11720;51.214;22.574;2023-04-24T12:09:59;4.10;;;2.45;;
23101;SDS011;11720;51.214;22.574;2023-04-24T12:12:25;3.13;;;2.30;;
23101;SDS011;11720;51.214;22.574;2023-04-24T12:14:53;3.58;;;2.55;;
23101;SDS011;11720;51.214;22.574;2023-04-24T12:17:27;2.83;;;1.92;;
23101;SDS011;11720;51.214;22.574;2023-04-24T12:19:57;3.28;;;2.30;;
23101;SDS011;11720;51.214;22.574;2023-04-24T12:22:46;2.58;;;2.25;;
23101;SDS011;11720;51.214;22.574;2023-04-24T12:25:16;4.35;;;2.53;;
23101;SDS011;11720;51.214;22.574;2023-04-24T12:27:44;3.15;;;2.53;;
23101;SDS011;11720;51.214;22.574;2023-04-24T12:30:11;4.45;;;2.55;;
23101;SDS011;11720;51.214;22.574;2023-04-24T12:32:49;3.80;;;2.40;;
23101;SDS011;11720;51.214;22.574;2023-04-24T12:35:20;5.28;;;2.67;;
23101;SDS011;11720;51.214;22.574;2023-04-24T12:37:47;3.88;;;2.20;;
23101;SDS011;11720;51.214;22.574;2023-04-24T12:40:15;3.85;;;2.67;;
23101;SDS011;11720;51.214;22.574;2023-04-24T12:42:43;3.10;;;2.20;;
23101;SDS011;11720;51.214;22.574;2023-04-24T12:45:10;4.00;;;2.83;;
23101;SDS011;11720;51.214;22.574;2023-04-24T12:47:37;2.70;;;2.30;;
23101;SDS011;11720;51.214;22.574;2023-04-24T12:50:04;3.47;;;2.92;;
23101;SDS011;11720;51.214;22.574;2023-04-24T12:52:31;3.58;;;2.47;;
23101;SDS011;11720;51.214;22.574;2023-04-24T12:54:58;3.88;;;2.28;;
23101;SDS011;11720;51.214;22.574;2023-04-24T12:57:25;3.88;;;2.38;;
23101;SDS011;11720;51.214;22.574;2023-04-24T12:59:54;4.07;;;2.28;;
23101;SDS011;11720;51.214;22.574;2023-04-24T13:02:22;3.28;;;2.40;;
23101;SDS011;11720;51.214;22.574;2023-04-24T13:04:49;2.97;;;2.30;;
23101;SDS011;11720;51.214;22.574;2023-04-24T13:07:15;4.93;;;2.58;;
23101;SDS011;11720;51.214;22.574;2023-04-24T13:09:42;4.40;;;2.70;;
23101;SDS011;11720;51.214;22.574;2023-04-24T13:12:08;5.05;;;2.20;;
23101;SDS011;11720;51.214;22.574;2023-04-24T13:14:35;2.88;;;1.98;;
23101;SDS011;11720;51.214;22.574;2023-04-24T13:17:01;3.30;;;2.25;;
23101;SDS011;11720;51.214;22.574;2023-04-24T13:19:27;5.18;;;2.33;;
23101;SDS011;11720;51.214;22.574;2023-04-24T13:21:54;10.43;;;2.58;;
23101;SDS011;11720;51.214;22.574;2023-04-24T13:24:24;5.65;;;2.55;;
23101;SDS011;11720;51.214;22.574;2023-04-24T13:26:51;3.53;;;2.50;;
23101;SDS011;11720;51.214;22.574;2023-04-24T13:29:21;3.08;;;2.53;;
23101;SDS011;11720;51.214;22.574;2023-04-24T13:31:49;3.60;;;2.50;;
23101;SDS011;11720;51.214;22.574;2023-04-24T13:34:16;3.95;;;2.50;;
23101;SDS011;11720;51.214;22.574;2023-04-24T13:36:43;3.95;;;2.83;;
23101;SDS011;11720;51.214;22.574;2023-04-24T13:39:09;3.28;;;2.55;;
23101;SDS011;11720;51.214;22.574;2023-04-24T13:41:35;4.03;;;2.58;;
23101;SDS011;11720;51.214;22.574;2023-04-24T13:44:01;3.35;;;2.53;;
23101;SDS011;11720;51.214;22.574;2023-04-24T13:46:28;4.07;;;2.47;;
23101;SDS011;11720;51.214;22.574;2023-04-24T13:48:54;3.85;;;2.55;;
23101;SDS011;11720;51.214;22.574;2023-04-24T13:51:19;4.88;;;2.75;;
23101;SDS011;11720;51.214;22.574;2023-04-24T13:53:45;4.75;;;2.67;;
23101;SDS011;11720;51.214;22.574;2023-04-24T13:56:11;3.03;;;2.50;;
23101;SDS011;11720;51.214;22.574;2023-04-24T13:58:38;4.47;;;3.58;;
23101;SDS011;11720;51.214;22.574;2023-04-24T14:01:04;4.05;;;2.70;;
23101;SDS011;11720;51.214;22.574;2023-04-24T14:03:30;2.58;;;2.30;;
23101;SDS011;11720;51.214;22.574;2023-04-24T14:05:56;4.70;;;2.80;;
23101;SDS011;11720;51.214;22.574;2023-04-24T14:08:22;4.10;;;2.70;;
23101;SDS011;11720;51.214;22.574;2023-04-24T14:10:48;7.63;;;3.50;;
23101;SDS011;11720;51.214;22.574;2023-04-24T14:13:15;3.63;;;3.10;;
23101;SDS011;11720;51.214;22.574;2023-04-24T14:15:41;3.17;;;2.58;;
23101;SDS011;11720;51.214;22.574;2023-04-24T14:18:07;3.42;;;2.47;;
23101;SDS011;11720;51.214;22.574;2023-04-24T14:20:33;7.63;;;2.88;;
23101;SDS011;11720;51.214;22.574;2023-04-24T14:22:58;7.20;;;2.35;;
23101;SDS011;11720;51.214;22.574;2023-04-24T14:25:24;3.22;;;2.28;;
23101;SDS011;11720;51.214;22.574;2023-04-24T14:27:50;3.67;;;2.67;;
23101;SDS011;11720;51.214;22.574;2023-04-24T14:30:16;3.60;;;2.40;;
23101;SDS011;11720;51.214;22.574;2023-04-24T14:32:42;6.78;;;2.67;;
23101;SDS011;11720;51.214;22.574;2023-04-24T14:35:08;4.20;;;2.35;;
23101;SDS011;11720;51.214;22.574;2023-04-24T14:37:34;3.50;;;2.42;;
23101;SDS011;11720;51.214;22.574;2023-04-24T14:40:01;3.15;;;2.47;;
23101;SDS011;11720;51.214;22.574;2023-04-24T14:42:30;2.75;;;2.25;;
23101;SDS011;11720;51.214;22.574;2023-04-24T14:44:56;3.30;;;2.38;;
23101;SDS011;11720;51.214;22.574;2023-04-24T14:47:21;5.75;;;2.58;;
23101;SDS011;11720;51.214;22.574;2023-04-24T14:49:47;3.25;;;2.80;;